Time;durP1;ratioP1;P1;durP2;ratioP2;P2;SDS_P1;SDS_P2;PMS_P1;PMS_P2;Temp;Humidity;BMP_temperature;BMP_pressure;BME280_temperature;BME280_humidity;BME280_pressure;Samples;Min_cycle;Max_cycle;Signal;HPM_P1;HPM_P2
2022/04/05 00:00:48;;;;;;;15.35;3.17;;;;;;;;;;5073580;28;20053;-64
2022/04/05 00:03:14;;;;;;;9.57;2.88;;;;;;;;;;5068142;28;20049;-64
2022/04/05 00:05:40;;;;;;;14.02;3.22;;;;;;;;;;5068616;28;20076;-65
2022/04/05 00:08:07;;;;;;;7.55;2.78;;;;;;;;;;5068547;28;20055;-65
2022/04/05 00:10:34;;;;;;;9.40;2.22;;;;;;;;;;5076927;28;20155;-65
2022/04/05 00:13:01;;;;;;;9.17;2.80;;;;;;;;;;5078059;28;20518;-65
2022/04/05 00:15:28;;;;;;;9.10;2.50;;;;;;;;;;5068056;28;20789;-65
2022/04/05 00:17:54;;;;;;;5.38;1.98;;;;;;;;;;5068483;28;20135;-65
2022/04/05 00:20:20;;;;;;;7.93;2.53;;;;;;;;;;5068747;28;20143;-65
2022/04/05 00:22:47;;;;;;;9.30;2.95;;;;;;;;;;5074989;28;20052;-64
2022/04/05 00:25:13;;;;;;;7.07;3.10;;;;;;;;;;5076090;28;20154;-65
2022/04/05 00:27:39;;;;;;;9.52;2.95;;;;;;;;;;5068047;28;20140;-64
2022/04/05 00:30:06;;;;;;;9.50;3.45;;;;;;;;;;5071770;28;20087;-66
2022/04/05 00:32:33;;;;;;;12.38;3.20;;;;;;;;;;5080964;28;20143;-66
2022/04/05 00:34:59;;;;;;;11.45;2.80;;;;;;;;;;5068508;28;20151;-66
2022/04/05 00:37:25;;;;;;;8.60;2.63;;;;;;;;;;5067879;28;20103;-66
2022/04/05 00:39:52;;;;;;;6.97;2.30;;;;;;;;;;5068525;28;20159;-67
2022/04/05 00:42:19;;;;;;;7.72;2.08;;;;;;;;;;5069136;28;20144;-64
2022/04/05 00:44:45;;;;;;;7.60;2.53;;;;;;;;;;5081240;28;20136;-64
2022/04/05 00:47:19;;;;;;;9.63;2.60;;;;;;;;;;5084576;28;20491;-66
2022/04/05 00:49:46;;;;;;;7.13;2.22;;;;;;;;;;5081775;28;20510;-64
2022/04/05 00:52:12;;;;;;;7.55;2.08;;;;;;;;;;5087460;28;20139;-66
2022/04/05 00:54:40;;;;;;;4.82;1.75;;;;;;;;;;5068173;28;20586;-67
2022/04/05 00:57:11;;;;;;;7.75;1.95;;;;;;;;;;5071231;28;20145;-66
2022/04/05 00:59:41;;;;;;;7.85;1.77;;;;;;;;;;5074461;28;20498;-65
2022/04/05 01:02:11;;;;;;;5.10;1.95;;;;;;;;;;5090968;28;20080;-65
2022/04/05 01:04:40;;;;;;;10.20;2.20;;;;;;;;;;5092114;28;20653;-65
2022/04/05 01:07:08;;;;;;;8.15;1.65;;;;;;;;;;5087474;28;20051;-65
2022/04/05 01:09:36;;;;;;;6.65;1.75;;;;;;;;;;5077763;28;20055;-65
2022/04/05 01:12:03;;;;;;;12.15;1.95;;;;;;;;;;5090456;28;20172;-65
2022/04/05 01:14:29;;;;;;;7.93;2.42;;;;;;;;;;5071853;28;20887;-65
2022/04/05 01:16:55;;;;;;;5.25;1.70;;;;;;;;;;5072952;28;20068;-65
2022/04/05 01:19:22;;;;;;;6.03;1.48;;;;;;;;;;5086000;28;20057;-65
2022/04/05 01:21:48;;;;;;;7.55;1.63;;;;;;;;;;5080069;28;20139;-65
2022/04/05 01:24:15;;;;;;;6.70;1.65;;;;;;;;;;5073872;28;20104;-65
2022/04/05 01:26:43;;;;;;;8.20;1.60;;;;;;;;;;5091370;28;20083;-65
2022/04/05 01:29:09;;;;;;;10.47;2.00;;;;;;;;;;5078962;28;20049;-65
2022/04/05 01:31:37;;;;;;;6.53;1.48;;;;;;;;;;5071826;28;20264;-65
2022/04/05 01:34:03;;;;;;;10.27;1.83;;;;;;;;;;5087170;28;20137;-65
2022/04/05 01:36:30;;;;;;;5.13;1.90;;;;;;;;;;5088413;28;20151;-65
2022/04/05 01:38:56;;;;;;;4.95;1.92;;;;;;;;;;5071246;28;20044;-65
2022/04/05 01:41:22;;;;;;;8.35;1.77;;;;;;;;;;5070176;28;20176;-65
2022/04/05 01:43:49;;;;;;;11.18;2.25;;;;;;;;;;5083740;28;20138;-65
2022/04/05 01:46:15;;;;;;;6.57;2.10;;;;;;;;;;5090590;28;20567;-65
2022/04/05 01:48:41;;;;;;;6.65;1.70;;;;;;;;;;5071386;28;20503;-65
2022/04/05 01:51:08;;;;;;;7.63;2.33;;;;;;;;;;5070032;28;20165;-65
2022/04/05 01:53:34;;;;;;;7.90;1.92;;;;;;;;;;5069640;28;20052;-66
2022/04/05 01:56:01;;;;;;;11.35;2.75;;;;;;;;;;5072332;28;20175;-65
2022/04/05 01:58:27;;;;;;;10.65;2.22;;;;;;;;;;5070341;28;20582;-65
2022/04/05 02:00:54;;;;;;;5.93;2.15;;;;;;;;;;5085057;28;20055;-65
2022/04/05 02:03:20;;;;;;;6.28;2.00;;;;;;;;;;5080808;28;20057;-65
2022/04/05 02:05:48;;;;;;;4.70;1.90;;;;;;;;;;5069089;28;20048;-66
2022/04/05 02:08:14;;;;;;;5.90;2.13;;;;;;;;;;5069461;28;20521;-66
2022/04/05 02:10:41;;;;;;;5.45;2.10;;;;;;;;;;5070676;28;20877;-66
2022/04/05 02:13:08;;;;;;;4.45;2.08;;;;;;;;;;5076772;28;20056;-66
2022/04/05 02:15:34;;;;;;;9.02;2.53;;;;;;;;;;5076539;28;20868;-65
2022/04/05 02:18:01;;;;;;;10.70;3.17;;;;;;;;;;5084155;28;20147;-65
2022/04/05 02:20:27;;;;;;;8.20;2.95;;;;;;;;;;5077795;28;20052;-65
2022/04/05 02:22:53;;;;;;;8.85;3.38;;;;;;;;;;5069191;28;20525;-65
2022/04/05 02:25:20;;;;;;;12.63;4.32;;;;;;;;;;5069312;28;20055;-65
2022/04/05 02:27:47;;;;;;;14.25;4.35;;;;;;;;;;5069744;28;20049;-65
2022/04/05 02:30:13;;;;;;;12.32;3.85;;;;;;;;;;5069618;28;20061;-65
2022/04/05 02:32:40;;;;;;;13.18;4.22;;;;;;;;;;5085672;28;20574;-65
2022/04/05 02:35:08;;;;;;;11.70;4.63;;;;;;;;;;5078280;28;20051;-65
2022/04/05 02:37:34;;;;;;;11.43;4.35;;;;;;;;;;5089463;28;20558;-65
2022/04/05 02:40:01;;;;;;;12.18;5.18;;;;;;;;;;5082420;28;20057;-65
2022/04/05 02:42:27;;;;;;;13.13;5.40;;;;;;;;;;5070597;28;20478;-65
2022/04/05 02:44:53;;;;;;;15.02;4.65;;;;;;;;;;5089327;28;20151;-65
2022/04/05 02:47:20;;;;;;;13.23;5.38;;;;;;;;;;5089328;28;20075;-65
2022/04/05 02:49:46;;;;;;;16.23;5.90;;;;;;;;;;5072199;28;20057;-65
2022/04/05 02:52:15;;;;;;;12.35;5.30;;;;;;;;;;5068745;28;20061;-65
2022/04/05 02:54:42;;;;;;;13.63;5.35;;;;;;;;;;5076200;28;20151;-65
2022/04/05 02:57:08;;;;;;;13.65;5.68;;;;;;;;;;5068540;28;20053;-65
2022/04/05 02:59:34;;;;;;;12.35;5.22;;;;;;;;;;5082033;28;20574;-65
2022/04/05 03:02:01;;;;;;;16.73;5.97;;;;;;;;;;5069788;28;20561;-66
2022/04/05 03:04:27;;;;;;;14.93;6.25;;;;;;;;;;5069119;28;20060;-65
2022/04/05 03:06:54;;;;;;;19.83;5.82;;;;;;;;;;5068284;28;20088;-65
2022/04/05 03:09:21;;;;;;;16.17;5.75;;;;;;;;;;5067258;28;20085;-65
2022/04/05 03:11:48;;;;;;;10.88;5.07;;;;;;;;;;5067501;28;20544;-65
2022/04/05 03:14:14;;;;;;;15.95;5.40;;;;;;;;;;5067806;28;20132;-65
2022/04/05 03:16:41;;;;;;;16.80;6.18;;;;;;;;;;5081073;28;20082;-66
2022/04/05 03:19:08;;;;;;;17.70;6.20;;;;;;;;;;5088521;28;20131;-65
2022/04/05 03:21:34;;;;;;;21.58;7.15;;;;;;;;;;5085121;28;20059;-65
2022/04/05 03:24:00;;;;;;;20.95;7.30;;;;;;;;;;5071640;28;20156;-65
2022/04/05 03:26:27;;;;;;;24.67;8.50;;;;;;;;;;5072850;28;20115;-65
2022/04/05 03:28:53;;;;;;;27.20;9.77;;;;;;;;;;5067861;28;20057;-65
2022/04/05 03:31:19;;;;;;;29.52;10.15;;;;;;;;;;5068246;28;20056;-65
2022/04/05 03:33:46;;;;;;;31.13;10.52;;;;;;;;;;5068587;28;20051;-65
2022/04/05 03:36:13;;;;;;;30.17;10.95;;;;;;;;;;5081559;28;20151;-65
2022/04/05 03:38:39;;;;;;;29.25;11.00;;;;;;;;;;5083125;28;20499;-65
2022/04/05 03:41:06;;;;;;;27.75;10.00;;;;;;;;;;5068619;28;20529;-65
2022/04/05 03:43:35;;;;;;;25.83;10.40;;;;;;;;;;5078450;28;20060;-65
2022/04/05 03:46:02;;;;;;;30.60;10.85;;;;;;;;;;5076614;28;20140;-65
2022/04/05 03:48:28;;;;;;;34.42;11.80;;;;;;;;;;5068075;28;20049;-65
2022/04/05 03:50:54;;;;;;;30.63;10.98;;;;;;;;;;5068842;28;20140;-66
2022/04/05 03:53:21;;;;;;;30.15;11.30;;;;;;;;;;5076462;28;20053;-65
2022/04/05 03:55:48;;;;;;;40.55;12.35;;;;;;;;;;5078876;28;20064;-65
2022/04/05 03:58:15;;;;;;;36.65;11.60;;;;;;;;;;5067914;28;20053;-65
2022/04/05 04:00:41;;;;;;;37.05;11.70;;;;;;;;;;5068374;28;20045;-65
2022/04/05 04:03:08;;;;;;;29.02;10.45;;;;;;;;;;5080961;28;20163;-65
2022/04/05 04:05:34;;;;;;;35.97;11.07;;;;;;;;;;5086505;28;20056;-65
2022/04/05 04:08:00;;;;;;;30.90;10.35;;;;;;;;;;5087463;28;20171;-65
2022/04/05 04:10:27;;;;;;;27.08;9.32;;;;;;;;;;5067536;28;20540;-65
2022/04/05 04:12:53;;;;;;;29.13;10.10;;;;;;;;;;5066550;28;21204;-65
2022/04/05 04:15:20;;;;;;;32.25;10.43;;;;;;;;;;5067381;28;20073;-65
2022/04/05 04:17:46;;;;;;;29.42;9.77;;;;;;;;;;5066576;28;20576;-65
2022/04/05 04:20:13;;;;;;;24.80;8.75;;;;;;;;;;5067820;28;20127;-65
2022/04/05 04:22:39;;;;;;;24.92;8.77;;;;;;;;;;5070398;28;20570;-65
2022/04/05 04:25:06;;;;;;;28.13;8.30;;;;;;;;;;5076621;28;20057;-65
2022/04/05 04:27:33;;;;;;;29.50;9.18;;;;;;;;;;5083683;28;20052;-66
2022/04/05 04:29:59;;;;;;;26.88;8.75;;;;;;;;;;5088142;28;20552;-66
2022/04/05 04:32:25;;;;;;;30.85;8.70;;;;;;;;;;5080212;28;20139;-65
2022/04/05 04:34:52;;;;;;;29.55;8.25;;;;;;;;;;5085870;28;20151;-65
2022/04/05 04:37:18;;;;;;;32.13;8.48;;;;;;;;;;5086221;28;20052;-65
2022/04/05 04:39:44;;;;;;;23.52;8.23;;;;;;;;;;5082703;28;20837;-65
2022/04/05 04:42:12;;;;;;;26.58;7.90;;;;;;;;;;5081443;28;20116;-65
2022/04/05 04:44:38;;;;;;;29.35;7.88;;;;;;;;;;5067132;28;20509;-65
2022/04/05 04:47:04;;;;;;;28.80;9.10;;;;;;;;;;5071471;28;20049;-65
2022/04/05 04:49:31;;;;;;;30.02;9.75;;;;;;;;;;5071243;28;20064;-65
2022/04/05 04:51:57;;;;;;;33.33;8.98;;;;;;;;;;5069537;28;20053;-65
2022/04/05 04:54:23;;;;;;;31.75;9.10;;;;;;;;;;5077005;28;20065;-65
2022/04/05 04:56:50;;;;;;;34.15;9.52;;;;;;;;;;5067209;28;20052;-65
2022/04/05 04:59:16;;;;;;;33.53;9.77;;;;;;;;;;5067228;28;20499;-65
2022/04/05 05:01:42;;;;;;;30.58;9.98;;;;;;;;;;5066823;28;20405;-65
2022/04/05 05:04:09;;;;;;;34.35;11.15;;;;;;;;;;5080777;28;20534;-66
2022/04/05 05:06:35;;;;;;;34.60;10.43;;;;;;;;;;5066451;28;20049;-65
2022/04/05 05:09:02;;;;;;;37.08;11.45;;;;;;;;;;5067034;28;20156;-65
2022/04/05 05:11:28;;;;;;;39.88;10.77;;;;;;;;;;5079951;28;20533;-65
2022/04/05 05:13:55;;;;;;;39.08;11.75;;;;;;;;;;5069039;28;20174;-65
2022/04/05 05:16:21;;;;;;;34.72;10.88;;;;;;;;;;5075639;28;20067;-65
2022/04/05 05:18:47;;;;;;;30.25;10.63;;;;;;;;;;5087820;28;20058;-65
2022/04/05 05:21:14;;;;;;;33.10;11.15;;;;;;;;;;5087345;28;20080;-65
2022/04/05 05:23:40;;;;;;;34.30;12.05;;;;;;;;;;5069875;28;20055;-65
2022/04/05 05:26:06;;;;;;;42.25;12.40;;;;;;;;;;5085683;28;20959;-66
2022/04/05 05:28:33;;;;;;;34.13;12.35;;;;;;;;;;5108131;27;20066;-65
2022/04/05 05:30:59;;;;;;;37.85;12.70;;;;;;;;;;5093558;27;20127;-65
2022/04/05 05:33:26;;;;;;;46.97;16.00;;;;;;;;;;5073499;28;20085;-65
2022/04/05 05:35:53;;;;;;;38.53;13.73;;;;;;;;;;5066005;28;20059;-65
2022/04/05 05:38:19;;;;;;;35.15;13.68;;;;;;;;;;5081736;28;20078;-65
2022/04/05 05:40:45;;;;;;;47.40;13.68;;;;;;;;;;5079019;28;20181;-65
2022/04/05 05:43:12;;;;;;;42.03;13.98;;;;;;;;;;5076168;28;20147;-65
2022/04/05 05:45:38;;;;;;;37.50;14.90;;;;;;;;;;5076247;28;20135;-65
2022/04/05 05:48:05;;;;;;;45.88;14.65;;;;;;;;;;5074216;28;20053;-65
2022/04/05 05:50:31;;;;;;;42.15;14.93;;;;;;;;;;5080038;28;20091;-65
2022/04/05 05:52:59;;;;;;;46.35;14.60;;;;;;;;;;5070177;28;20132;-65
2022/04/05 05:55:26;;;;;;;36.25;13.98;;;;;;;;;;5085352;28;20595;-65
2022/04/05 05:57:52;;;;;;;33.30;13.55;;;;;;;;;;5082141;28;20049;-66
2022/04/05 06:00:22;;;;;;;34.42;13.90;;;;;;;;;;5072167;28;20574;-65
2022/04/05 06:02:51;;;;;;;35.72;13.27;;;;;;;;;;5080392;28;20059;-66
2022/04/05 06:05:17;;;;;;;39.67;13.23;;;;;;;;;;5082180;28;20053;-65
2022/04/05 06:07:44;;;;;;;36.88;12.63;;;;;;;;;;5066858;28;20142;-65
2022/04/05 06:10:11;;;;;;;31.48;12.07;;;;;;;;;;5069022;28;20053;-64
2022/04/05 06:12:38;;;;;;;28.38;11.55;;;;;;;;;;5069535;28;20107;-64
2022/04/05 06:15:09;;;;;;;23.83;10.77;;;;;;;;;;5077380;28;20720;-65
2022/04/05 06:17:36;;;;;;;34.03;11.77;;;;;;;;;;5075026;28;20073;-65
2022/04/05 06:20:03;;;;;;;26.48;11.05;;;;;;;;;;5068804;28;20140;-67
2022/04/05 06:22:29;;;;;;;33.00;10.63;;;;;;;;;;5069672;28;20149;-66
2022/04/05 06:24:56;;;;;;;28.15;9.88;;;;;;;;;;5076674;28;20560;-67
2022/04/05 06:27:23;;;;;;;24.75;9.88;;;;;;;;;;5080362;28;20114;-66
2022/04/05 06:29:49;;;;;;;30.50;11.13;;;;;;;;;;5070620;28;20045;-66
2022/04/05 06:32:17;;;;;;;27.27;8.68;;;;;;;;;;5078998;28;20601;-67
2022/04/05 06:34:43;;;;;;;23.60;8.85;;;;;;;;;;5078949;28;20116;-67
2022/04/05 06:37:10;;;;;;;27.23;9.65;;;;;;;;;;5087867;28;20525;-67
2022/04/05 06:39:36;;;;;;;26.25;9.10;;;;;;;;;;5082433;28;20143;-67
2022/04/05 06:42:02;;;;;;;25.38;9.43;;;;;;;;;;5080199;28;20147;-67
2022/04/05 06:44:29;;;;;;;29.65;8.93;;;;;;;;;;5068280;28;20087;-67
2022/04/05 06:46:55;;;;;;;25.15;8.75;;;;;;;;;;5068953;28;20053;-68
2022/04/05 06:49:21;;;;;;;23.60;8.77;;;;;;;;;;5073113;28;20152;-67
2022/04/05 06:51:48;;;;;;;21.75;8.18;;;;;;;;;;5069122;28;20172;-67
2022/04/05 06:54:14;;;;;;;24.60;8.45;;;;;;;;;;5066376;28;20148;-67
2022/04/05 06:56:41;;;;;;;19.52;8.00;;;;;;;;;;5069743;28;20088;-67
2022/04/05 06:59:07;;;;;;;19.90;7.75;;;;;;;;;;5074485;28;20063;-67
2022/04/05 07:01:33;;;;;;;17.08;8.25;;;;;;;;;;5086920;28;20151;-67
2022/04/05 07:04:00;;;;;;;20.27;8.32;;;;;;;;;;5089038;28;20567;-67
2022/04/05 07:06:26;;;;;;;26.15;8.05;;;;;;;;;;5089599;28;20048;-67
2022/04/05 07:08:53;;;;;;;26.23;8.52;;;;;;;;;;5075883;28;20048;-66
2022/04/05 07:11:19;;;;;;;24.15;7.88;;;;;;;;;;5088072;28;20168;-67
2022/04/05 07:13:46;;;;;;;20.55;8.00;;;;;;;;;;5088588;28;20080;-67
2022/04/05 07:16:12;;;;;;;21.33;8.38;;;;;;;;;;5078238;28;20170;-67
2022/04/05 07:18:39;;;;;;;21.27;7.78;;;;;;;;;;5069229;28;20503;-68
2022/04/05 07:21:06;;;;;;;19.15;8.07;;;;;;;;;;5088185;28;20203;-68
2022/04/05 07:23:32;;;;;;;19.40;7.15;;;;;;;;;;5089254;28;20056;-68
2022/04/05 07:25:58;;;;;;;16.73;7.40;;;;;;;;;;5088685;28;20591;-68
2022/04/05 07:28:25;;;;;;;17.70;7.00;;;;;;;;;;5084956;28;20143;-69
2022/04/05 07:30:51;;;;;;;30.20;7.63;;;;;;;;;;5076585;28;20084;-68
2022/04/05 07:33:18;;;;;;;22.42;6.63;;;;;;;;;;5071966;28;20140;-68
2022/04/05 07:35:45;;;;;;;14.67;6.50;;;;;;;;;;5088666;28;20998;-68
2022/04/05 07:38:12;;;;;;;15.85;6.63;;;;;;;;;;5080002;28;20060;-68
2022/04/05 07:40:48;;;;;;;17.80;6.22;;;;;;;;;;5074757;28;20135;-68
2022/04/05 07:43:15;;;;;;;14.13;6.57;;;;;;;;;;5089094;28;20056;-68
2022/04/05 07:45:42;;;;;;;18.05;6.88;;;;;;;;;;5083131;28;20064;-68
2022/04/05 07:48:08;;;;;;;17.13;7.03;;;;;;;;;;5069979;28;20060;-68
2022/04/05 07:50:34;;;;;;;15.55;6.22;;;;;;;;;;5085393;28;20919;-68
2022/04/05 07:53:01;;;;;;;21.63;7.13;;;;;;;;;;5085919;28;20534;-69
2022/04/05 07:55:27;;;;;;;16.83;7.00;;;;;;;;;;5086132;28;20757;-69
2022/04/05 07:57:53;;;;;;;16.23;6.68;;;;;;;;;;5086170;28;20144;-69
2022/04/05 08:00:20;;;;;;;19.70;6.68;;;;;;;;;;5085739;28;20139;-69
2022/04/05 08:02:46;;;;;;;17.40;6.35;;;;;;;;;;5087632;28;20059;-69
2022/04/05 08:05:14;;;;;;;19.63;6.85;;;;;;;;;;5088651;28;20114;-69
2022/04/05 08:07:41;;;;;;;12.82;6.13;;;;;;;;;;5087644;28;20052;-69
2022/04/05 08:10:07;;;;;;;19.75;6.35;;;;;;;;;;5086054;28;20139;-69
2022/04/05 08:12:34;;;;;;;17.20;6.22;;;;;;;;;;5087317;28;20985;-69
2022/04/05 08:15:01;;;;;;;16.05;6.05;;;;;;;;;;5086567;28;20247;-69
2022/04/05 08:17:27;;;;;;;16.13;6.03;;;;;;;;;;5087289;28;20084;-70
2022/04/05 08:19:53;;;;;;;18.92;6.07;;;;;;;;;;5086199;28;20053;-70
2022/04/05 08:22:20;;;;;;;14.35;5.50;;;;;;;;;;5086561;28;21118;-70
2022/04/05 08:24:46;;;;;;;20.52;5.65;;;;;;;;;;5087985;28;20535;-69
2022/04/05 08:27:12;;;;;;;17.98;5.97;;;;;;;;;;5086944;28;21999;-70
2022/04/05 08:29:41;;;;;;;15.18;5.70;;;;;;;;;;5087753;28;20148;-70
2022/04/05 08:32:07;;;;;;;15.43;5.60;;;;;;;;;;5087093;28;20553;-69
2022/04/05 08:34:35;;;;;;;15.40;4.95;;;;;;;;;;5087493;28;20056;-70
2022/04/05 08:37:01;;;;;;;18.55;4.80;;;;;;;;;;5085289;28;20044;-70
2022/04/05 08:39:28;;;;;;;12.80;4.65;;;;;;;;;;5071530;28;20114;-68
2022/04/05 08:41:55;;;;;;;15.30;5.57;;;;;;;;;;5067231;28;20049;-69
2022/04/05 08:44:22;;;;;;;13.55;4.82;;;;;;;;;;5070800;28;20091;-69
2022/04/05 08:46:50;;;;;;;15.85;5.72;;;;;;;;;;5067389;28;20049;-68
2022/04/05 08:49:17;;;;;;;19.17;5.53;;;;;;;;;;5081573;28;20135;-69
2022/04/05 08:51:43;;;;;;;30.70;5.90;;;;;;;;;;5082467;28;20057;-69
2022/04/05 08:54:10;;;;;;;16.65;5.38;;;;;;;;;;5066384;28;20096;-68
2022/04/05 08:56:36;;;;;;;13.13;4.70;;;;;;;;;;5067062;28;20597;-68
2022/04/05 08:59:03;;;;;;;17.75;5.63;;;;;;;;;;5081199;28;20053;-69
2022/04/05 09:01:29;;;;;;;13.27;4.88;;;;;;;;;;5076720;28;20502;-69
2022/04/05 09:03:56;;;;;;;16.80;5.93;;;;;;;;;;5087178;28;20076;-68
2022/04/05 09:06:25;;;;;;;13.82;5.68;;;;;;;;;;5070980;28;20060;-68
2022/04/05 09:08:51;;;;;;;;;;;;;;;;;;5075072;28;20155;-69
2022/04/05 09:11:20;;;;;;;14.23;5.88;;;;;;;;;;5092714;27;45815;-68
2022/04/05 09:13:58;;;;;;;18.50;7.22;;;;;;;;;;5087782;28;20563;-68
2022/04/05 09:16:28;;;;;;;15.93;6.10;;;;;;;;;;5068550;28;20060;-68
2022/04/05 09:18:54;;;;;;;17.23;5.47;;;;;;;;;;5082697;28;20061;-68
2022/04/05 09:21:20;;;;;;;17.48;5.60;;;;;;;;;;5084923;28;20131;-68
2022/04/05 09:23:52;;;;;;;18.17;6.10;;;;;;;;;;5071316;28;20557;-68
2022/04/05 09:26:19;;;;;;;16.65;6.57;;;;;;;;;;5070561;28;20063;-68
2022/04/05 09:28:47;;;;;;;25.48;7.05;;;;;;;;;;5070337;28;20103;-68
2022/04/05 09:31:14;;;;;;;21.23;6.82;;;;;;;;;;5090447;28;20052;-68
2022/04/05 09:34:00;;;;;;;17.60;7.18;;;;;;;;;;5089534;28;20057;-68
2022/04/05 09:36:32;;;;;;;17.73;6.40;;;;;;;;;;5079440;28;20053;-67
2022/04/05 09:39:08;;;;;;;15.73;6.38;;;;;;;;;;5070737;28;20827;-68
2022/04/05 09:41:35;;;;;;;21.40;7.07;;;;;;;;;;5071244;28;20041;-68
2022/04/05 09:44:01;;;;;;;23.80;7.22;;;;;;;;;;5069478;28;20140;-68
2022/04/05 09:46:28;;;;;;;17.98;6.53;;;;;;;;;;5069765;28;20583;-68
2022/04/05 09:49:02;;;;;;;16.05;6.40;;;;;;;;;;5070221;28;20063;-68
2022/04/05 09:51:33;;;;;;;17.50;6.07;;;;;;;;;;5069645;28;20049;-68
2022/04/05 09:54:00;;;;;;;15.15;6.30;;;;;;;;;;5069991;28;20049;-69
2022/04/05 09:56:30;;;;;;;13.70;6.85;;;;;;;;;;5070052;28;20059;-68
2022/04/05 09:59:06;;;;;;;19.45;7.18;;;;;;;;;;5070165;28;20144;-69
2022/04/05 10:01:36;;;;;;;16.50;6.35;;;;;;;;;;5069966;28;20107;-68
2022/04/05 10:04:04;;;;;;;20.95;7.50;;;;;;;;;;5069612;28;20049;-68
2022/04/05 10:06:38;;;;;;;22.45;8.77;;;;;;;;;;5070088;28;20081;-68
2022/04/05 10:09:06;;;;;;;19.95;8.13;;;;;;;;;;5069675;28;20110;-68
2022/04/05 10:11:37;;;;;;;16.40;6.83;;;;;;;;;;5068822;28;20147;-68
2022/04/05 10:14:04;;;;;;;21.27;7.15;;;;;;;;;;5069661;28;20056;-68
2022/04/05 10:16:31;;;;;;;17.02;6.80;;;;;;;;;;5069097;28;20057;-68
2022/04/05 10:19:06;;;;;;;15.07;7.05;;;;;;;;;;5069665;28;20065;-68
2022/04/05 10:21:36;;;;;;;18.00;6.80;;;;;;;;;;5072198;28;20501;-68
2022/04/05 10:24:04;;;;;;;18.35;7.22;;;;;;;;;;5077764;28;20099;-68
2022/04/05 10:26:41;;;;;;;15.55;6.35;;;;;;;;;;5088116;28;20135;-68
2022/04/05 10:29:08;;;;;;;13.68;6.18;;;;;;;;;;5072673;28;20052;-67
2022/04/05 10:31:53;;;;;;;17.80;5.93;;;;;;;;;;5088567;28;20602;-67
2022/04/05 10:34:21;;;;;;;19.92;7.07;;;;;;;;;;5077038;28;20466;-67
2022/04/05 10:37:07;;;;;;;19.83;6.90;;;;;;;;;;5068840;28;20156;-67
2022/04/05 10:39:33;;;;;;;14.07;6.30;;;;;;;;;;5069809;28;20144;-67
2022/04/05 10:42:09;;;;;;;10.45;5.30;;;;;;;;;;5086355;28;20083;-67
2022/04/05 10:44:36;;;;;;;15.88;5.90;;;;;;;;;;5082395;28;20053;-67
2022/04/05 10:47:06;;;;;;;16.55;7.05;;;;;;;;;;5069011;28;20143;-67
2022/04/05 10:49:54;;;;;;;17.73;5.82;;;;;;;;;;5068251;28;20072;-67
2022/04/05 10:52:23;;;;;;;17.88;6.05;;;;;;;;;;5072576;28;20154;-67
2022/04/05 10:54:51;;;;;;;13.07;5.80;;;;;;;;;;5089239;28;20063;-67
2022/04/05 10:57:18;;;;;;;16.77;6.35;;;;;;;;;;5089122;28;20151;-67
2022/04/05 10:59:46;;;;;;;12.90;5.80;;;;;;;;;;5070434;28;20152;-67
2022/04/05 11:02:28;;;;;;;50.50;8.02;;;;;;;;;;5068919;28;20147;-67
2022/04/05 11:05:18;;;;;;;14.65;5.38;;;;;;;;;;5069377;28;20049;-67
2022/04/05 11:07:51;;;;;;;14.57;5.72;;;;;;;;;;5068169;28;20134;-68
2022/04/05 11:10:36;;;;;;;11.48;5.53;;;;;;;;;;5068880;28;20052;-67
2022/04/05 11:13:06;;;;;;;14.13;5.65;;;;;;;;;;5077694;28;20055;-67
2022/04/05 11:15:42;;;;;;;14.55;5.85;;;;;;;;;;5088354;28;20064;-67
2022/04/05 11:18:09;;;;;;;9.30;4.22;;;;;;;;;;5083509;28;20591;-67
2022/04/05 11:20:38;;;;;;;19.25;5.40;;;;;;;;;;5068952;28;20057;-67
2022/04/05 11:23:08;;;;;;;10.65;4.78;;;;;;;;;;5078213;28;20056;-67
2022/04/05 11:25:35;;;;;;;17.98;5.90;;;;;;;;;;5076349;28;20061;-67
2022/04/05 11:28:15;;;;;;;11.07;5.05;;;;;;;;;;5077517;28;20742;-67
2022/04/05 11:30:51;;;;;;;16.23;5.43;;;;;;;;;;5068409;28;20140;-68
2022/04/05 11:33:18;;;;;;;14.25;4.55;;;;;;;;;;5078933;28;20059;-68
2022/04/05 11:35:45;;;;;;;15.18;4.90;;;;;;;;;;5086994;28;20167;-68
2022/04/05 11:38:27;;;;;;;10.10;4.90;;;;;;;;;;5072851;28;20593;-68
2022/04/05 11:40:55;;;;;;;12.88;5.47;;;;;;;;;;5079879;28;20053;-68
2022/04/05 11:43:24;;;;;;;12.40;5.82;;;;;;;;;;5075658;28;20068;-69
2022/04/05 11:45:52;;;;;;;11.30;5.10;;;;;;;;;;5067939;28;20856;-68
2022/04/05 11:48:20;;;;;;;12.65;4.93;;;;;;;;;;5067922;28;20059;-68
2022/04/05 11:50:47;;;;;;;11.77;4.85;;;;;;;;;;5066786;28;20055;-69
2022/04/05 11:53:22;;;;;;;11.63;4.85;;;;;;;;;;5070798;28;20052;-68
2022/04/05 11:56:21;;;;;;;11.20;4.40;;;;;;;;;;5075260;28;20110;-68
2022/04/05 11:58:48;;;;;;;17.27;5.68;;;;;;;;;;5076156;28;20135;-69
2022/04/05 12:01:18;;;;;;;12.23;4.78;;;;;;;;;;5075553;28;20067;-69
2022/04/05 12:03:54;;;;;;;13.20;5.22;;;;;;;;;;5068053;28;20144;-68
2022/04/05 12:06:25;;;;;;;12.13;4.80;;;;;;;;;;5081823;28;20066;-68
2022/04/05 12:08:53;;;;;;;15.43;5.88;;;;;;;;;;5088496;28;20601;-68
2022/04/05 12:11:21;;;;;;;14.10;5.75;;;;;;;;;;5087654;28;20150;-68
2022/04/05 12:13:53;;;;;;;13.23;5.63;;;;;;;;;;5068626;28;20139;-68
2022/04/05 12:16:20;;;;;;;13.70;5.63;;;;;;;;;;5082718;28;20071;-68
2022/04/05 12:18:46;;;;;;;15.50;6.18;;;;;;;;;;5087477;28;20053;-68
2022/04/05 12:21:13;;;;;;;14.25;6.10;;;;;;;;;;5087624;28;20143;-67
2022/04/05 12:23:41;;;;;;;12.18;5.28;;;;;;;;;;5087852;28;20110;-68
2022/04/05 12:26:07;;;;;;;;;;;;;;;;;;5072995;28;20499;-67
2022/04/05 12:28:34;;;;;;;14.65;6.20;;;;;;;;;;5066291;28;46478;-67
2022/04/05 12:31:07;;;;;;;11.02;6.30;;;;;;;;;;5068842;28;20059;-67
2022/04/05 12:33:34;;;;;;;14.05;5.82;;;;;;;;;;5088907;28;20059;-67
2022/04/05 12:36:01;;;;;;;14.80;6.38;;;;;;;;;;5087855;28;20061;-67
2022/04/05 12:38:28;;;;;;;12.98;6.55;;;;;;;;;;5081971;28;20131;-67
2022/04/05 12:40:55;;;;;;;15.50;6.60;;;;;;;;;;5070123;28;20536;-67
2022/04/05 12:43:21;;;;;;;19.05;7.63;;;;;;;;;;5087530;28;20064;-68
2022/04/05 12:45:49;;;;;;;12.40;5.93;;;;;;;;;;5084535;28;20185;-68
2022/04/05 12:48:16;;;;;;;14.52;6.38;;;;;;;;;;5066800;28;20107;-68
2022/04/05 12:50:43;;;;;;;19.65;7.40;;;;;;;;;;5067748;28;20577;-68
2022/04/05 12:53:10;;;;;;;15.65;6.35;;;;;;;;;;5087549;28;20060;-68
2022/04/05 12:55:36;;;;;;;11.60;6.05;;;;;;;;;;5087932;28;20138;-68
2022/04/05 12:58:03;;;;;;;11.85;6.10;;;;;;;;;;5076262;28;20148;-68
2022/04/05 13:00:33;;;;;;;13.05;6.35;;;;;;;;;;5072197;28;20139;-68
2022/04/05 13:03:09;;;;;;;16.83;7.15;;;;;;;;;;5071567;28;20072;-68
2022/04/05 13:08:28;;;;;;;16.92;6.55;;;;;;;;;;5067641;28;20049;-67
2022/04/05 13:10:54;;;;;;;16.30;6.88;;;;;;;;;;5070123;28;20550;-66
2022/04/05 13:13:25;;;;;;;13.35;6.78;;;;;;;;;;5087537;28;20181;-66
2022/04/05 13:16:01;;;;;;;16.80;6.95;;;;;;;;;;5067933;28;20100;-66
2022/04/05 13:18:33;;;;;;;16.30;7.07;;;;;;;;;;5080434;28;20052;-67
2022/04/05 13:21:01;;;;;;;18.48;7.78;;;;;;;;;;5080153;28;20063;-66
2022/04/05 13:23:30;;;;;;;11.75;6.03;;;;;;;;;;5088835;28;20056;-66
2022/04/05 13:25:57;;;;;;;15.13;7.15;;;;;;;;;;5086959;28;20564;-66
2022/04/05 13:28:33;;;;;;;14.63;6.93;;;;;;;;;;5074054;28;20143;-65
2022/04/05 13:31:07;;;;;;;16.80;6.78;;;;;;;;;;5070019;28;20872;-68
2022/04/05 13:33:34;;;;;;;19.65;7.72;;;;;;;;;;5071239;28;20063;-68
2022/04/05 13:36:00;;;;;;;14.30;6.65;;;;;;;;;;5068798;28;20061;-68
2022/04/05 13:38:27;;;;;;;15.10;7.30;;;;;;;;;;5072210;28;20130;-68
2022/04/05 13:40:54;;;;;;;14.15;6.70;;;;;;;;;;5083654;28;20053;-67
2022/04/05 13:43:21;;;;;;;17.67;7.18;;;;;;;;;;5077039;28;20072;-68
2022/04/05 13:45:48;;;;;;;13.83;6.80;;;;;;;;;;5087452;28;20171;-67
2022/04/05 13:48:15;;;;;;;13.27;6.88;;;;;;;;;;5073555;28;20057;-67
2022/04/05 13:50:41;;;;;;;14.57;5.78;;;;;;;;;;5077109;28;20145;-68
2022/04/05 13:53:07;;;;;;;12.93;6.57;;;;;;;;;;5072877;28;20151;-68
2022/04/05 13:55:33;;;;;;;11.40;5.63;;;;;;;;;;5083772;28;20084;-67
2022/04/05 13:58:00;;;;;;;14.38;6.05;;;;;;;;;;5087735;28;20140;-68
2022/04/05 14:00:26;;;;;;;12.02;5.90;;;;;;;;;;5087105;28;20079;-67
2022/04/05 14:02:54;;;;;;;14.38;5.93;;;;;;;;;;5087630;28;20057;-68
2022/04/05 14:05:21;;;;;;;14.50;5.93;;;;;;;;;;5087038;28;20056;-68
2022/04/05 14:07:47;;;;;;;12.90;6.57;;;;;;;;;;5088603;28;20139;-69
2022/04/05 14:10:13;;;;;;;14.10;6.10;;;;;;;;;;5090245;28;20057;-68
2022/04/05 14:13:00;;;;;;;12.10;5.88;;;;;;;;;;5090217;28;21139;-68
2022/04/05 14:15:26;;;;;;;13.32;6.75;;;;;;;;;;5090354;28;20060;-68
2022/04/05 14:17:52;;;;;;;14.32;6.80;;;;;;;;;;5090721;28;20522;-68
2022/04/05 14:20:19;;;;;;;14.32;7.13;;;;;;;;;;5090437;28;20155;-68
2022/04/05 14:22:45;;;;;;;11.98;6.05;;;;;;;;;;5090024;28;20502;-67
2022/04/05 14:25:12;;;;;;;13.38;6.50;;;;;;;;;;5090603;28;20056;-68
2022/04/05 14:27:38;;;;;;;13.80;6.25;;;;;;;;;;5089294;28;20083;-68
2022/04/05 14:30:04;;;;;;;12.30;5.75;;;;;;;;;;5090110;28;20623;-68
2022/04/05 14:32:31;;;;;;;16.85;6.57;;;;;;;;;;5075279;28;20060;-68
2022/04/05 14:34:57;;;;;;;13.32;6.10;;;;;;;;;;5091012;28;20143;-67
2022/04/05 14:37:44;;;;;;;13.13;6.20;;;;;;;;;;5090053;28;20060;-68